Artois, California
Current Conditions -  °F | °C
As of 2:53 AM on Thursday 18 Dec 2014 (Local Time) from KOVE Reporting Station
Overcast Overcast  
Wind Chill: 51°   Ceiling: 5000
Heat Index: 51°   Visibility: 10mi
Dew Point: 47°   Wind: 6mph
Humidity: 86%   Direction: 80°E
Pressure: 30.13"   Gusts: NA
Location:  39.62°N, 122.2°W
Report Text: KOVE 181053Z AUTO 08005KT 10SM OVC050 11/08 A3013 RMK AO2 SLP206 T01060083
Loading
Personal Weather Stations






























Interactive Weather Map New forecast layout! Learn more

10-Day Weather Forecast

Advertisements
Track Severe Weather on mobile